Twodot, Montana
Current Conditions -  °F | °C
As of 5:54 PM on Friday 21 Nov 2014 (Local Time) from KLWT Reporting Station
Few Clouds Few Clouds  
Wind Chill: 28°   Ceiling: Unl
Heat Index: 36°   Visibility: 10mi
Dew Point: 26°   Wind: 12mph
Humidity: 67%   Direction: 230°SW
Pressure: 29.73"   Gusts: NA
Location:  46.42°N, 110.07°W
Report Text: KLWT 220054Z AUTO 23010KT 10SM FEW070 02/M03 A2973 RMK AO2 SLP087 T00221033
Loading
Personal Weather Stations






























Interactive Weather Map New forecast layout! Learn more

10-Day Weather Forecast

Advertisements
Track Severe Weather on mobile